Login

Results   

  1 2 3 4 5 6 7 8 9101112+/-Sum  
  Par:33333333343337
Open (18)  1 2 3 4 5 6 7 8 9101112+/-Sum  
1Dirk Haase08/01/20 10:00223233324322-631  
  08/01/20 14:00343334323332-136-767
2Sebastian Ulkan08/01/20 10:00423332333432-235  
  08/01/20 14:00323323433333-235-470
3Sebastian Stroop08/01/20 10:00322333433333-235  
  08/01/20 14:00233323343433-136-371
3Jan Ackerhans08/01/20 10:00323323224532-334  
  08/01/20 14:00323343333433037-371
5Dirk Rehder08/01/20 10:00242323334432-235  
  08/01/20 14:00234334333432037-272
6Carsten Rohrmann08/01/20 10:00222432433432-334  
  08/01/20 14:00333323434443+239-173
6Jan Czech08/01/20 10:00334223333423-235  
  08/01/20 14:00333433333343+138-173
8Johann Höptner08/01/20 10:00542422333333037  
  08/01/20 14:00333335433323+138+175
9Frank Mischke08/01/20 10:00235333433322-136  
  08/01/20 14:00323523434533+340+276
9Jona Brückner08/01/20 10:00334223423432-235  
  08/01/20 14:00324334444433+441+276
11Nik Lange08/01/20 10:00334443433533+542  
  08/01/20 14:00333333333432-136+478
12Michael Sinne08/01/20 10:00234323443453+340  
  08/01/20 14:00333353334433+340+680
12Armin Sebrantke08/01/20 10:00443332434433+340  
  08/01/20 14:00344333344423+340+680
14Marc Zimmerm08/01/20 10:00333434333343+239  
  08/01/20 14:00333332644434+542+781
15Darius Rosenthal08/01/20 10:00424434434444+744  
  08/01/20 14:00344333434542+542+1286
15Volkmar Kurio08/01/20 10:00335332434463+643  
  08/01/20 14:00334532534542+643+1286
17Lucca Pape08/01/20 10:00335434344543+845  
  08/01/20 14:00354332445433+643+1488
18Ilja Czech08/01/20 10:00354433344454+946  
  08/01/20 14:00424334444543+744+1690
Damen (4)  1 2 3 4 5 6 7 8 9101112+/-Sum  
1Angela Podschwatke08/01/20 10:00234323443433+138  
  08/01/20 14:00333434433533+441+579
2Pia Krause08/01/20 10:00444433535543+1047  
  08/01/20 14:00334433434643+744+1791
3Julia Hillebrandt08/01/20 10:00444443544733+1249  
  08/01/20 14:00344444535743+1350+2599
4Frederike Brings08/01/20 10:00245743555543+1552  
  08/01/20 14:00466645544564+2259+37111
Einsteiger (5)  1 2 3 4 5 6 7 8 9101112+/-Sum  
1Ingo Schäder08/01/20 10:00323333433333-136  
  08/01/20 14:00333333324333-136-272
2Timo Kehlbeck08/01/20 10:00243332334433037  
  08/01/20 14:00334333333432037074
3Robin Donat08/01/20 10:00433444433543+744  
  08/01/20 14:00333543433444+643+1387
4Björn Spiegel08/01/20 10:00434443444533+845  
  08/01/20 14:00343434344543+744+1589
5Cornelius Jorg08/01/20 10:00344634435734+1350  
  08/01/20 14:00545444545645+1855+31105

 

 

 

5. Ruhrpott Putters Trilogy Challenge (wenn auch nicht so richtig…)

 

Hallo Trilogy Fans!

 

Leider ist in diesem Jahr Alles irgendwie anders, und das betrifft leider auch unsere Trilogy Challenge. Da noch nicht abzusehen ist, wann ein Turnierbetrieb wieder möglich ist, wir aber trotzdem jedem die Möglichkeit bieten wollen, das diesjährige Trilogy Challenge Player Pack zu bekommen, werden wir eine Challenge für den 01.08.2020. anmelden. Das bedeutet nicht, das an diesem Tag tatsächlich ein Turnier stattfindet. Es bedeutet nur, dass wir kurz vor diesem Datum die Player Packs von Latitude 64 zugeschickt bekommen.

Sollte sich zu diesem Zeitpunkt abzeichnen, das mit der Wiederaufnahme des Turnierbetriebs in Deutschland zu rechnen ist, werden wir euch 2 Termine nennen, an denen es uns möglich ist, einen Parcours zu nutzen und spontan eine Trilogy Challenge zu organisieren. Wahrscheinlicher ist jedoch, dass wir euch die Player Packs per DHL zukommen lassen, oder euch die Möglichkeit geben, diese persönlich abzuholen.

Die Kosten pro Player Pack sind im Vergleich zum letzten Jahr gesunken, und liegen bei 35€ pro Pack. Wenn wir euch das Player Pack zuschicken sollen, fallen zusätzlich 5€ Versandkosten an (DHL, mit Tracking, versichert).

Wenn ihr ein (oder auch mehrere) Player Pack bestellen wollt, könnt ihr dies hier über Discgolfmetrix machen.

 

Wir hoffen, dass wir so zumindest ein bisschen an der Tradition festhalten können, und werden mit umso mehr Energie die Trilogy Challenge für 2021 angehen.

 

Zu guter Letzt hier noch die Bestandteile des diesjährigen Player Pack

 

Ihr bekommt:

  • 1x Westside Discs BT Hybrid Crown (Putter, Speed: 3 Glide: 4 Turn: 0 Fade: 1)
  • 1x Dynamic Discs Lucid/Fuzion Bounty (Midrange, Speed: 4 Glide: 5 Turn: -1.5 Fade: 0.5)
  • 1x Latitude 64 Opto/Gold SPZ3 (Driver, Speed: 9 Glide: 6 Turn: -1 Fade: 2)
  • 1x Mini Marker
  • 1x Quick Dry Towel von Latitude 64

 

Also nutzt die Chance eure Sammlung fortzuführen :)

Mit sportlichen Grüßen,

Eure Ruhrpott Putters.


Hole-by-hole statistics

View: Grouped chart | Detailed chart | Table


 User statistics 
 | 
 Show presenter
 | 
Show pdf 

Results will be updated every 30 seconds!

Share

What would you like to share?